createdAt,value
2019-05-16T00:00:22.913Z,40.36
2019-05-16T00:03:14.568Z,40.37
2019-05-16T00:06:05.832Z,40.30
2019-05-16T00:08:55.014Z,40.42
2019-05-16T00:11:43.988Z,40.36
2019-05-16T00:14:33.169Z,40.55
2019-05-16T00:17:24.156Z,40.43
2019-05-16T00:20:13.448Z,40.53
2019-05-16T00:23:02.821Z,40.57
2019-05-16T00:25:53.948Z,40.59
2019-05-16T00:28:43.048Z,40.66
2019-05-16T00:31:31.947Z,40.63
2019-05-16T00:34:21.348Z,40.75
2019-05-16T00:37:14.843Z,40.75
2019-05-16T00:40:08.210Z,40.77
2019-05-16T00:42:58.961Z,40.84
2019-05-16T00:45:48.796Z,41.05
2019-05-16T00:48:38.272Z,40.92
2019-05-16T00:51:28.786Z,40.97
2019-05-16T00:54:20.968Z,41.05
2019-05-16T00:57:11.782Z,41.10
2019-05-16T01:00:01.804Z,41.10
2019-05-16T01:02:55.022Z,41.10
2019-05-16T01:05:45.163Z,41.25
2019-05-16T01:08:34.338Z,41.26
2019-05-16T01:11:27.759Z,41.31
2019-05-16T01:14:18.515Z,41.29
2019-05-16T01:17:08.653Z,41.40
2019-05-16T01:19:58.169Z,41.44
2019-05-16T01:22:49.032Z,41.39
2019-05-16T01:25:38.944Z,41.44
2019-05-16T01:28:28.493Z,41.59
2019-05-16T01:31:19.603Z,41.53
2019-05-16T01:34:08.881Z,41.61
2019-05-16T01:36:59.112Z,41.63
2019-05-16T01:39:48.655Z,41.73
2019-05-16T01:42:38.554Z,41.71
2019-05-16T01:45:28.380Z,41.76
2019-05-16T01:48:19.400Z,41.75
2019-05-16T01:51:09.510Z,41.82
2019-05-16T01:54:00.536Z,41.80
2019-05-16T01:56:50.074Z,41.84
2019-05-16T01:59:39.161Z,41.88
2019-05-16T02:02:28.945Z,41.97
2019-05-16T02:05:18.919Z,41.87
2019-05-16T02:08:09.033Z,42.07
2019-05-16T02:10:58.626Z,42.12
2019-05-16T02:13:48.437Z,42.12
2019-05-16T02:16:38.543Z,42.13
2019-05-16T02:19:27.998Z,42.20
2019-05-16T02:22:17.932Z,42.38
2019-05-16T02:25:08.139Z,42.35
2019-05-16T02:27:59.799Z,42.34
2019-05-16T02:30:51.519Z,42.43
2019-05-16T02:33:40.838Z,42.36
2019-05-16T02:36:31.381Z,42.36
2019-05-16T02:39:22.438Z,42.44
2019-05-16T02:42:13.547Z,42.52
2019-05-16T02:45:03.230Z,42.50
2019-05-16T02:47:54.061Z,42.52
2019-05-16T02:50:44.193Z,42.59
2019-05-16T02:53:34.559Z,42.68
2019-05-16T02:56:23.998Z,42.69
2019-05-16T02:59:13.770Z,42.67
2019-05-16T03:02:03.583Z,42.75
2019-05-16T03:04:53.773Z,42.86
2019-05-16T03:07:47.123Z,42.94
2019-05-16T03:10:34.377Z,43.03
2019-05-16T03:13:24.016Z,43.04
2019-05-16T03:16:13.441Z,43.13
2019-05-16T03:19:04.680Z,43.12
2019-05-16T03:21:55.035Z,43.13
2019-05-16T03:24:45.070Z,43.27
2019-05-16T03:27:34.224Z,43.29
2019-05-16T03:30:25.052Z,43.27
2019-05-16T03:33:24.203Z,43.27
2019-05-16T03:36:14.043Z,43.38
2019-05-16T03:39:01.303Z,43.51
2019-05-16T03:41:50.740Z,43.52
2019-05-16T03:44:41.153Z,43.50
2019-05-16T03:47:34.326Z,43.47
2019-05-16T03:50:26.107Z,43.51
2019-05-16T03:53:16.175Z,43.60
2019-05-16T03:56:06.325Z,43.60
2019-05-16T03:59:01.125Z,43.61
2019-05-16T04:01:51.069Z,43.70
2019-05-16T04:04:41.758Z,43.80
2019-05-16T04:07:31.955Z,43.80
2019-05-16T04:10:21.824Z,43.88
2019-05-16T04:13:11.626Z,43.86
2019-05-16T04:16:02.055Z,43.88
2019-05-16T04:18:52.963Z,43.89
2019-05-16T04:21:44.846Z,43.89
2019-05-16T04:24:34.623Z,44.00
2019-05-16T04:27:24.322Z,43.90
2019-05-16T04:30:15.310Z,44.03
2019-05-16T04:33:04.533Z,44.19
2019-05-16T04:35:54.202Z,44.14
2019-05-16T04:38:46.685Z,44.10
2019-05-16T04:41:35.062Z,44.22
2019-05-16T04:44:24.525Z,44.21
2019-05-16T04:47:13.410Z,44.21
2019-05-16T04:50:02.181Z,44.19
2019-05-16T04:52:51.907Z,44.23
2019-05-16T04:55:42.161Z,44.19
2019-05-16T04:58:31.902Z,44.34
2019-05-16T05:01:21.840Z,44.41
2019-05-16T05:04:15.485Z,44.50
2019-05-16T05:07:04.796Z,44.48
2019-05-16T05:09:54.183Z,44.46
2019-05-16T05:12:42.855Z,44.67
2019-05-16T05:15:32.369Z,44.55
2019-05-16T05:18:21.936Z,44.45
2019-05-16T05:21:11.810Z,44.43
2019-05-16T05:24:02.075Z,44.41
2019-05-16T05:26:54.257Z,44.45
2019-05-16T05:29:44.104Z,44.68
2019-05-16T05:32:33.923Z,44.52
2019-05-16T05:35:23.420Z,44.45
2019-05-16T05:38:12.394Z,44.50
2019-05-16T05:41:02.221Z,44.78
2019-05-16T05:43:54.371Z,44.79
2019-05-16T05:46:42.781Z,44.60
2019-05-16T05:49:31.863Z,44.75
2019-05-16T05:52:25.059Z,44.77
2019-05-16T05:55:13.743Z,44.72
2019-05-16T05:58:04.332Z,44.72
2019-05-16T06:00:53.956Z,44.71
2019-05-16T06:03:44.582Z,44.52
2019-05-16T06:06:34.191Z,44.57
2019-05-16T06:09:28.258Z,44.59
2019-05-16T06:12:14.187Z,46.48
2019-05-16T06:15:08.780Z,46.19
2019-05-16T06:17:57.039Z,45.82
2019-05-16T06:20:50.848Z,45.41
2019-05-16T06:23:40.277Z,45.08
2019-05-16T06:26:30.416Z,44.85
2019-05-16T06:29:21.255Z,44.64
2019-05-16T06:32:10.881Z,44.57
2019-05-16T06:35:00.647Z,44.62
2019-05-16T06:37:50.112Z,44.75
2019-05-16T06:40:40.176Z,44.37
2019-05-16T06:43:31.142Z,44.17
2019-05-16T06:46:21.494Z,44.28
2019-05-16T06:49:13.772Z,44.14
2019-05-16T06:52:03.615Z,44.03
2019-05-16T06:54:54.003Z,44.22
2019-05-16T06:57:43.463Z,43.81
2019-05-16T07:00:33.473Z,43.63
2019-05-16T07:03:26.067Z,43.79
2019-05-16T07:06:36.026Z,43.54
2019-05-16T07:09:06.914Z,43.36
2019-05-16T07:11:57.004Z,43.10
2019-05-16T07:14:46.252Z,43.04
2019-05-16T07:17:35.621Z,42.79
2019-05-16T07:20:25.846Z,42.77
2019-05-16T07:23:15.799Z,42.68
2019-05-16T07:26:04.993Z,42.58
2019-05-16T07:28:54.123Z,42.29
2019-05-16T07:31:43.754Z,41.96
2019-05-16T07:34:35.944Z,41.79
2019-05-16T07:37:25.096Z,41.70
2019-05-16T07:40:19.665Z,41.77
2019-05-16T07:43:06.074Z,41.69
2019-05-16T07:45:55.957Z,41.38
2019-05-16T07:48:45.725Z,41.40
2019-05-16T07:51:35.902Z,41.22
2019-05-16T07:54:27.618Z,41.21
2019-05-16T07:57:20.455Z,41.13
2019-05-16T08:00:09.625Z,40.71
2019-05-16T08:03:00.055Z,40.84
2019-05-16T08:05:51.408Z,40.69
2019-05-16T08:08:41.483Z,40.63
2019-05-16T08:11:31.275Z,40.60
2019-05-16T08:14:22.651Z,40.44
2019-05-16T08:17:12.360Z,40.37
2019-05-16T08:20:03.031Z,40.29
2019-05-16T08:22:53.078Z,40.33
2019-05-16T08:25:43.310Z,40.14
2019-05-16T08:28:33.410Z,39.83
2019-05-16T08:31:23.194Z,39.53
2019-05-16T08:34:13.442Z,39.37
2019-05-16T08:37:30.642Z,39.29
2019-05-16T08:40:00.518Z,38.87
2019-05-16T08:42:51.990Z,38.47
2019-05-16T08:45:41.945Z,38.22
2019-05-16T08:48:32.139Z,37.98
2019-05-16T08:51:23.682Z,37.95
2019-05-16T08:54:16.209Z,37.88
2019-05-16T08:57:25.474Z,37.67
2019-05-16T09:00:02.668Z,37.12
2019-05-16T09:02:52.881Z,36.52
2019-05-16T09:05:43.151Z,36.31
2019-05-16T09:08:33.227Z,36.13
2019-05-16T09:11:35.504Z,36.02
2019-05-16T09:14:18.225Z,35.78
2019-05-16T09:17:08.483Z,35.93
2019-05-16T09:19:58.382Z,35.78
2019-05-16T09:22:50.905Z,35.58
2019-05-16T09:25:40.258Z,34.84
2019-05-16T09:28:30.011Z,34.76
2019-05-16T09:31:20.293Z,34.46
2019-05-16T09:34:09.823Z,34.02
2019-05-16T09:37:01.482Z,33.80
2019-05-16T09:39:51.775Z,33.40
2019-05-16T09:42:42.541Z,33.06
2019-05-16T09:45:33.217Z,32.76
2019-05-16T09:48:23.492Z,32.44
2019-05-16T09:51:12.879Z,32.44
2019-05-16T09:54:02.324Z,32.27
2019-05-16T09:56:51.690Z,31.90
2019-05-16T09:59:41.816Z,31.92
2019-05-16T10:02:31.485Z,31.45
2019-05-16T10:05:21.844Z,31.78
2019-05-16T10:08:11.574Z,31.63
2019-05-16T10:11:01.502Z,31.73
2019-05-16T10:13:50.446Z,31.79
2019-05-16T10:16:40.373Z,31.73
2019-05-16T10:19:29.810Z,31.65
2019-05-16T10:22:21.243Z,31.84
2019-05-16T10:25:10.664Z,31.50
2019-05-16T10:27:59.856Z,31.30
2019-05-16T10:30:50.070Z,31.49
2019-05-16T10:33:42.230Z,31.37
2019-05-16T10:36:32.886Z,31.29
2019-05-16T10:39:23.998Z,31.26
2019-05-16T10:42:27.207Z,31.33
2019-05-16T10:45:08.657Z,31.96
2019-05-16T10:47:58.401Z,31.13
2019-05-16T10:50:48.013Z,31.01
2019-05-16T10:54:01.037Z,31.07
2019-05-16T10:56:29.666Z,31.19
2019-05-16T11:02:13.879Z,30.61
2019-05-16T11:05:22.436Z,30.46
2019-05-16T11:07:58.704Z,29.57
2019-05-16T11:10:50.514Z,29.11
2019-05-16T11:13:41.715Z,29.37
2019-05-16T11:16:31.033Z,29.40
2019-05-16T11:19:24.459Z,29.36
2019-05-16T11:22:12.072Z,29.43
2019-05-16T11:25:01.799Z,29.43
2019-05-16T11:27:57.412Z,29.55
2019-05-16T11:30:51.720Z,29.02
2019-05-16T11:33:47.706Z,29.06
2019-05-16T11:36:38.844Z,28.94
2019-05-16T11:39:28.405Z,28.54
2019-05-16T11:42:20.003Z,28.19
2019-05-16T11:45:10.916Z,27.88
2019-05-16T11:48:02.658Z,27.86
2019-05-16T11:50:52.148Z,27.50
2019-05-16T11:53:44.183Z,27.09
2019-05-16T11:56:33.993Z,26.62
2019-05-16T11:59:23.251Z,26.81
2019-05-16T12:02:12.450Z,26.78
2019-05-16T12:05:01.773Z,25.81
2019-05-16T12:07:52.167Z,25.64
2019-05-16T12:10:41.146Z,25.25
2019-05-16T12:13:32.942Z,25.55
2019-05-16T12:16:24.108Z,25.74
2019-05-16T12:19:14.606Z,25.56
2019-05-16T12:22:03.698Z,25.84
2019-05-16T12:24:53.840Z,26.14
2019-05-16T12:27:43.132Z,26.33
2019-05-16T12:30:33.156Z,26.27
2019-05-16T12:33:22.977Z,25.88
2019-05-16T12:36:13.193Z,25.31
2019-05-16T12:39:04.613Z,24.99
2019-05-16T12:41:58.993Z,25.35
2019-05-16T12:44:50.986Z,25.33
2019-05-16T12:47:43.245Z,25.03
2019-05-16T12:50:32.741Z,24.78
2019-05-16T12:53:23.607Z,25.16
2019-05-16T12:56:13.211Z,24.74
2019-05-16T12:59:02.624Z,24.72
2019-05-16T13:01:52.021Z,24.28
2019-05-16T13:04:41.944Z,24.17
2019-05-16T13:07:31.732Z,24.19
2019-05-16T13:10:20.985Z,23.82
2019-05-16T13:13:10.890Z,23.97
2019-05-16T13:16:01.923Z,23.82
2019-05-16T13:18:51.258Z,24.21
2019-05-16T13:21:42.065Z,23.23
2019-05-16T13:24:32.055Z,23.97
2019-05-16T13:27:23.413Z,23.42
2019-05-16T13:30:14.186Z,23.33
2019-05-16T13:33:07.330Z,23.28
2019-05-16T13:35:57.816Z,23.43
2019-05-16T13:38:47.980Z,23.52
2019-05-16T13:41:40.961Z,23.26
2019-05-16T13:44:30.541Z,23.23
2019-05-16T13:47:20.820Z,23.79
2019-05-16T13:50:12.728Z,23.34
2019-05-16T13:53:02.528Z,23.37
2019-05-16T13:55:54.797Z,23.63
2019-05-16T13:58:46.985Z,23.62
2019-05-16T14:01:37.229Z,23.64
2019-05-16T14:04:30.256Z,23.47
2019-05-16T14:07:20.364Z,22.94
2019-05-16T14:10:17.845Z,22.98
2019-05-16T14:13:07.458Z,22.89
2019-05-16T14:15:57.377Z,23.31
2019-05-16T14:18:46.944Z,23.33
2019-05-16T14:21:36.021Z,23.28
2019-05-16T14:24:28.141Z,23.22
2019-05-16T14:27:17.279Z,23.22
2019-05-16T14:30:08.506Z,23.76
2019-05-16T14:33:01.612Z,23.69
2019-05-16T14:35:49.151Z,24.02
2019-05-16T14:38:40.685Z,24.17
2019-05-16T14:41:37.221Z,24.32
2019-05-16T14:44:28.580Z,24.70
2019-05-16T14:47:21.707Z,24.81
2019-05-16T14:50:13.924Z,24.54
2019-05-16T14:53:03.067Z,24.70
2019-05-16T14:55:54.215Z,24.83
2019-05-16T14:58:48.171Z,24.72
2019-05-16T15:01:37.746Z,24.71
2019-05-16T15:04:30.178Z,24.89
2019-05-16T15:07:23.411Z,25.08
2019-05-16T15:10:12.602Z,25.23
2019-05-16T15:13:04.041Z,25.36
2019-05-16T15:15:57.003Z,25.58
2019-05-16T15:18:54.183Z,26.11
2019-05-16T15:21:47.673Z,26.51
2019-05-16T15:24:37.220Z,26.75
2019-05-16T15:27:26.939Z,26.82
2019-05-16T15:30:17.174Z,26.73
2019-05-16T15:33:08.463Z,26.85
2019-05-16T15:35:58.817Z,26.72
2019-05-16T15:38:48.213Z,26.96
2019-05-16T15:41:37.456Z,27.14
2019-05-16T15:44:27.399Z,27.39
2019-05-16T15:47:19.173Z,27.61
2019-05-16T15:50:09.927Z,27.58
2019-05-16T15:52:59.337Z,28.16
2019-05-16T15:55:48.951Z,28.32
2019-05-16T15:58:38.434Z,28.76
2019-05-16T16:01:28.033Z,28.78
2019-05-16T16:04:18.187Z,28.74
2019-05-16T16:07:07.903Z,28.97
2019-05-16T16:10:07.070Z,29.30
2019-05-16T16:13:00.210Z,29.39
2019-05-16T16:15:54.449Z,29.68
2019-05-16T16:18:46.689Z,29.76
2019-05-16T16:21:37.766Z,29.89
2019-05-16T16:24:28.344Z,30.28
2019-05-16T16:27:19.638Z,29.97
2019-05-16T16:30:09.592Z,29.56
2019-05-16T16:32:59.452Z,28.91
2019-05-16T16:35:48.842Z,28.80
2019-05-16T16:38:38.808Z,28.56
2019-05-16T16:41:29.143Z,28.42
2019-05-16T16:44:20.006Z,28.25
2019-05-16T16:47:09.786Z,28.48
2019-05-16T16:50:01.205Z,28.95
2019-05-16T16:52:50.518Z,29.01
2019-05-16T16:55:40.049Z,29.28
2019-05-16T16:58:29.134Z,29.84
2019-05-16T17:01:18.307Z,30.02
2019-05-16T17:04:17.465Z,30.13
2019-05-16T17:07:07.740Z,30.36
2019-05-16T17:09:59.529Z,30.61
2019-05-16T17:12:50.689Z,31.21
2019-05-16T17:15:42.175Z,31.08
2019-05-16T17:18:31.073Z,31.41
2019-05-16T17:21:23.419Z,31.52
2019-05-16T17:24:13.240Z,31.74
2019-05-16T17:27:03.973Z,31.76
2019-05-16T17:30:00.817Z,31.82
2019-05-16T17:32:51.272Z,31.95
2019-05-16T17:35:41.131Z,32.09
2019-05-16T17:38:30.989Z,32.19
2019-05-16T17:41:20.464Z,32.21
2019-05-16T17:44:10.187Z,32.48
2019-05-16T17:47:07.405Z,32.57
2019-05-16T17:49:57.684Z,32.63
2019-05-16T17:52:47.897Z,33.04
2019-05-16T17:55:37.423Z,33.18
2019-05-16T17:58:27.186Z,33.36
2019-05-16T18:01:17.075Z,33.63
2019-05-16T18:04:17.241Z,33.75
2019-05-16T18:07:07.323Z,34.08
2019-05-16T18:09:57.744Z,34.33
2019-05-16T18:12:48.105Z,34.31
2019-05-16T18:15:37.877Z,34.43
2019-05-16T18:18:28.139Z,34.42
2019-05-16T18:21:17.234Z,34.47
2019-05-16T18:24:06.864Z,34.91
2019-05-16T18:26:57.115Z,34.80
2019-05-16T18:29:47.106Z,35.20
2019-05-16T18:32:37.434Z,35.20
2019-05-16T18:35:27.908Z,35.18
2019-05-16T18:38:19.488Z,35.20
2019-05-16T18:41:10.015Z,35.35
2019-05-16T18:44:03.384Z,35.48
2019-05-16T18:47:04.856Z,35.55
2019-05-16T18:49:47.341Z,35.46
2019-05-16T18:52:37.492Z,35.58
2019-05-16T18:55:27.576Z,35.67
2019-05-16T18:58:17.947Z,35.93
2019-05-16T19:01:07.915Z,35.93
2019-05-16T19:03:57.831Z,35.98
2019-05-16T19:06:47.690Z,35.98
2019-05-16T19:09:37.492Z,36.03
2019-05-16T19:12:27.372Z,36.30
2019-05-16T19:15:17.989Z,36.49
2019-05-16T19:18:08.908Z,36.72
2019-05-16T19:20:59.303Z,36.57
2019-05-16T19:23:49.036Z,36.78
2019-05-16T19:26:46.779Z,37.10
2019-05-16T19:29:36.849Z,37.00
2019-05-16T19:32:30.176Z,37.22
2019-05-16T19:35:20.685Z,37.31
2019-05-16T19:38:11.703Z,37.30
2019-05-16T19:41:02.317Z,37.41
2019-05-16T19:43:52.207Z,37.65
2019-05-16T19:46:42.527Z,37.84
2019-05-16T19:49:33.758Z,38.00
2019-05-16T19:52:29.306Z,38.21
2019-05-16T19:55:17.225Z,38.33
2019-05-16T19:58:07.215Z,38.42
2019-05-16T20:00:57.462Z,38.63
2019-05-16T20:03:47.373Z,38.68
2019-05-16T20:06:38.657Z,38.83
2019-05-16T20:09:30.265Z,39.03
2019-05-16T20:12:19.878Z,39.20
2019-05-16T20:15:11.806Z,39.35
2019-05-16T20:18:01.318Z,39.41
2019-05-16T20:20:50.557Z,39.61
2019-05-16T20:23:40.768Z,39.82
2019-05-16T20:26:31.100Z,40.16
2019-05-16T20:29:20.881Z,40.37
2019-05-16T20:32:11.580Z,40.43
2019-05-16T20:35:01.685Z,40.59
2019-05-16T20:37:52.199Z,40.59
2019-05-16T20:40:42.158Z,40.77
2019-05-16T20:43:32.041Z,40.90
2019-05-16T20:46:22.200Z,40.91
2019-05-16T20:49:11.462Z,40.88
2019-05-16T20:52:02.758Z,40.98
2019-05-16T20:54:57.766Z,41.18
2019-05-16T20:57:49.955Z,41.40
2019-05-16T21:00:40.351Z,41.46
2019-05-16T21:03:29.819Z,41.46
2019-05-16T21:06:19.498Z,41.70
2019-05-16T21:09:09.941Z,41.88
2019-05-16T21:11:59.778Z,41.75
2019-05-16T21:14:49.992Z,41.74
2019-05-16T21:17:39.808Z,41.85
2019-05-16T21:20:30.045Z,41.98
2019-05-16T21:23:20.082Z,41.95
2019-05-16T21:26:09.513Z,42.05
2019-05-16T21:28:59.340Z,42.11
2019-05-16T21:31:49.011Z,42.23
2019-05-16T21:34:38.702Z,42.27
2019-05-16T21:37:31.470Z,42.29
2019-05-16T21:40:23.314Z,42.36
2019-05-16T21:43:13.060Z,42.34
2019-05-16T21:46:07.286Z,42.30
2019-05-16T21:48:58.054Z,42.39
2019-05-16T21:51:50.405Z,42.41
2019-05-16T21:54:42.665Z,42.39
2019-05-16T21:57:37.496Z,42.49
2019-05-16T22:00:38.582Z,42.42
2019-05-16T22:03:28.013Z,42.80
2019-05-16T22:06:18.450Z,42.68
2019-05-16T22:09:09.145Z,42.87
2019-05-16T22:11:58.768Z,42.95
2019-05-16T22:14:53.245Z,43.26
2019-05-16T22:17:49.178Z,43.36
2019-05-16T22:20:41.571Z,43.44
2019-05-16T22:23:31.505Z,43.60
2019-05-16T22:26:21.992Z,43.61
2019-05-16T22:29:12.263Z,43.61
2019-05-16T22:32:01.844Z,43.70
2019-05-16T22:34:51.604Z,43.77
2019-05-16T22:37:52.056Z,43.92
2019-05-16T22:40:33.373Z,44.02
2019-05-16T22:43:23.244Z,43.99
2019-05-16T22:46:13.333Z,43.86
2019-05-16T22:49:02.926Z,43.92
2019-05-16T22:51:52.458Z,44.13
2019-05-16T22:54:42.066Z,44.07
2019-05-16T22:57:30.916Z,44.18
2019-05-16T23:00:26.587Z,44.25
2019-05-16T23:03:17.377Z,44.22
2019-05-16T23:06:07.821Z,44.48
2019-05-16T23:08:58.565Z,44.62
2019-05-16T23:11:48.821Z,44.90
2019-05-16T23:14:39.397Z,45.31
2019-05-16T23:17:30.568Z,45.38
2019-05-16T23:20:20.041Z,45.49
2019-05-16T23:23:09.968Z,45.57
2019-05-16T23:25:59.254Z,45.52
2019-05-16T23:28:56.525Z,45.78
2019-05-16T23:31:47.164Z,45.72
2019-05-16T23:34:38.987Z,45.63
2019-05-16T23:37:28.996Z,45.88
2019-05-16T23:40:18.369Z,45.76
2019-05-16T23:43:09.642Z,45.81
2019-05-16T23:45:59.599Z,45.99
2019-05-16T23:48:49.020Z,46.03
2019-05-16T23:51:41.115Z,46.26
2019-05-16T23:54:31.754Z,46.34
2019-05-16T23:57:21.509Z,46.35
